sensor_id;sensor_type;location;lat;lon;timestamp;P1;durP1;ratioP1;P2;durP2;ratioP2
3155;SDS011;1588;50.892;7.082;2023-11-19T00:02:06;1.30;;;1.20;;
3155;SDS011;1588;50.892;7.082;2023-11-19T00:07:08;3.37;;;1.13;;
3155;SDS011;1588;50.892;7.082;2023-11-19T00:12:12;13.60;;;1.60;;
3155;SDS011;1588;50.892;7.082;2023-11-19T00:17:16;6.77;;;1.57;;
3155;SDS011;1588;50.892;7.082;2023-11-19T00:22:19;4.10;;;1.10;;
3155;SDS011;1588;50.892;7.082;2023-11-19T00:27:22;3.80;;;1.23;;
3155;SDS011;1588;50.892;7.082;2023-11-19T00:32:26;3.40;;;1.00;;
3155;SDS011;1588;50.892;7.082;2023-11-19T00:37:30;3.17;;;1.27;;
3155;SDS011;1588;50.892;7.082;2023-11-19T00:42:32;2.93;;;1.30;;
3155;SDS011;1588;50.892;7.082;2023-11-19T00:47:36;1.23;;;1.10;;
3155;SDS011;1588;50.892;7.082;2023-11-19T00:52:38;1.53;;;1.10;;
3155;SDS011;1588;50.892;7.082;2023-11-19T00:57:41;1.40;;;0.90;;
3155;SDS011;1588;50.892;7.082;2023-11-19T01:02:45;1.00;;;0.83;;
3155;SDS011;1588;50.892;7.082;2023-11-19T01:07:48;6.27;;;0.90;;
3155;SDS011;1588;50.892;7.082;2023-11-19T01:12:50;0.80;;;0.77;;
3155;SDS011;1588;50.892;7.082;2023-11-19T01:17:54;2.87;;;1.20;;
3155;SDS011;1588;50.892;7.082;2023-11-19T01:22:57;3.07;;;0.90;;
3155;SDS011;1588;50.892;7.082;2023-11-19T01:27:59;1.73;;;0.97;;
3155;SDS011;1588;50.892;7.082;2023-11-19T01:33:04;1.43;;;0.97;;
3155;SDS011;1588;50.892;7.082;2023-11-19T01:38:08;1.10;;;0.80;;
3155;SDS011;1588;50.892;7.082;2023-11-19T01:43:11;1.43;;;1.00;;
3155;SDS011;1588;50.892;7.082;2023-11-19T01:48:17;1.63;;;0.93;;
3155;SDS011;1588;50.892;7.082;2023-11-19T01:53:19;1.00;;;0.90;;
3155;SDS011;1588;50.892;7.082;2023-11-19T01:58:22;0.97;;;0.97;;
3155;SDS011;1588;50.892;7.082;2023-11-19T02:03:26;6.23;;;0.70;;
3155;SDS011;1588;50.892;7.082;2023-11-19T02:08:29;0.90;;;0.77;;
3155;SDS011;1588;50.892;7.082;2023-11-19T02:13:32;0.70;;;0.60;;
3155;SDS011;1588;50.892;7.082;2023-11-19T02:18:38;0.80;;;0.77;;
3155;SDS011;1588;50.892;7.082;2023-11-19T02:23:40;0.70;;;0.60;;
3155;SDS011;1588;50.892;7.082;2023-11-19T02:28:44;0.80;;;0.70;;
3155;SDS011;1588;50.892;7.082;2023-11-19T02:33:46;1.00;;;0.80;;
3155;SDS011;1588;50.892;7.082;2023-11-19T02:38:50;3.57;;;0.83;;
3155;SDS011;1588;50.892;7.082;2023-11-19T02:43:54;1.13;;;0.83;;
3155;SDS011;1588;50.892;7.082;2023-11-19T02:48:56;1.33;;;0.77;;
3155;SDS011;1588;50.892;7.082;2023-11-19T02:53:58;1.13;;;1.03;;
3155;SDS011;1588;50.892;7.082;2023-11-19T02:59:02;0.80;;;0.80;;
3155;SDS011;1588;50.892;7.082;2023-11-19T03:04:09;0.80;;;0.80;;
3155;SDS011;1588;50.892;7.082;2023-11-19T03:09:12;1.20;;;0.80;;
3155;SDS011;1588;50.892;7.082;2023-11-19T03:14:16;0.83;;;0.70;;
3155;SDS011;1588;50.892;7.082;2023-11-19T03:19:19;3.17;;;1.10;;
3155;SDS011;1588;50.892;7.082;2023-11-19T03:24:21;2.50;;;1.03;;
3155;SDS011;1588;50.892;7.082;2023-11-19T03:29:26;8.40;;;1.13;;
3155;SDS011;1588;50.892;7.082;2023-11-19T03:34:29;1.50;;;1.10;;
3155;SDS011;1588;50.892;7.082;2023-11-19T03:39:31;5.27;;;1.53;;
3155;SDS011;1588;50.892;7.082;2023-11-19T03:44:35;6.00;;;1.90;;
3155;SDS011;1588;50.892;7.082;2023-11-19T03:49:37;4.93;;;1.40;;
3155;SDS011;1588;50.892;7.082;2023-11-19T03:54:39;2.27;;;1.10;;
3155;SDS011;1588;50.892;7.082;2023-11-19T03:59:43;3.83;;;1.40;;
3155;SDS011;1588;50.892;7.082;2023-11-19T04:04:45;12.97;;;1.50;;
3155;SDS011;1588;50.892;7.082;2023-11-19T04:09:48;2.70;;;1.40;;
3155;SDS011;1588;50.892;7.082;2023-11-19T04:14:52;10.00;;;2.50;;
3155;SDS011;1588;50.892;7.082;2023-11-19T04:19:55;11.90;;;2.27;;
3155;SDS011;1588;50.892;7.082;2023-11-19T04:24:57;22.67;;;2.60;;
3155;SDS011;1588;50.892;7.082;2023-11-19T04:30:01;14.10;;;2.83;;
3155;SDS011;1588;50.892;7.082;2023-11-19T04:35:04;7.83;;;2.17;;
3155;SDS011;1588;50.892;7.082;2023-11-19T04:40:08;13.60;;;2.70;;
3155;SDS011;1588;50.892;7.082;2023-11-19T04:45:12;20.73;;;3.40;;
3155;SDS011;1588;50.892;7.082;2023-11-19T04:50:14;13.23;;;2.83;;
3155;SDS011;1588;50.892;7.082;2023-11-19T04:55:16;20.33;;;3.50;;
3155;SDS011;1588;50.892;7.082;2023-11-19T05:00:20;14.13;;;2.70;;
3155;SDS011;1588;50.892;7.082;2023-11-19T05:05:23;12.60;;;2.60;;
3155;SDS011;1588;50.892;7.082;2023-11-19T05:10:26;9.97;;;2.60;;
3155;SDS011;1588;50.892;7.082;2023-11-19T05:15:29;12.47;;;2.43;;
3155;SDS011;1588;50.892;7.082;2023-11-19T05:20:32;11.13;;;2.40;;
3155;SDS011;1588;50.892;7.082;2023-11-19T05:25:34;17.30;;;2.80;;
3155;SDS011;1588;50.892;7.082;2023-11-19T05:30:39;22.17;;;2.90;;
3155;SDS011;1588;50.892;7.082;2023-11-19T05:35:41;9.40;;;2.27;;
3155;SDS011;1588;50.892;7.082;2023-11-19T05:40:44;14.33;;;2.10;;
3155;SDS011;1588;50.892;7.082;2023-11-19T05:45:50;10.23;;;2.60;;
3155;SDS011;1588;50.892;7.082;2023-11-19T05:50:52;16.33;;;2.40;;
3155;SDS011;1588;50.892;7.082;2023-11-19T05:55:55;11.90;;;2.53;;
3155;SDS011;1588;50.892;7.082;2023-11-19T06:00:59;17.07;;;3.20;;
3155;SDS011;1588;50.892;7.082;2023-11-19T06:06:03;15.00;;;3.23;;
3155;SDS011;1588;50.892;7.082;2023-11-19T06:11:05;17.30;;;3.00;;
3155;SDS011;1588;50.892;7.082;2023-11-19T06:16:09;13.63;;;2.30;;
3155;SDS011;1588;50.892;7.082;2023-11-19T06:21:12;24.80;;;3.70;;
3155;SDS011;1588;50.892;7.082;2023-11-19T06:26:15;28.10;;;2.90;;
3155;SDS011;1588;50.892;7.082;2023-11-19T06:31:18;14.23;;;2.50;;
3155;SDS011;1588;50.892;7.082;2023-11-19T06:36:21;14.20;;;2.23;;
3155;SDS011;1588;50.892;7.082;2023-11-19T06:41:23;18.40;;;3.20;;
3155;SDS011;1588;50.892;7.082;2023-11-19T06:46:27;15.83;;;2.30;;
3155;SDS011;1588;50.892;7.082;2023-11-19T06:51:29;17.40;;;2.87;;
3155;SDS011;1588;50.892;7.082;2023-11-19T06:56:32;15.83;;;3.17;;
3155;SDS011;1588;50.892;7.082;2023-11-19T07:01:36;18.50;;;2.57;;
3155;SDS011;1588;50.892;7.082;2023-11-19T07:06:38;18.33;;;4.57;;
3155;SDS011;1588;50.892;7.082;2023-11-19T07:11:42;18.13;;;3.57;;
3155;SDS011;1588;50.892;7.082;2023-11-19T07:16:47;19.43;;;3.73;;
3155;SDS011;1588;50.892;7.082;2023-11-19T07:21:50;17.40;;;3.00;;
3155;SDS011;1588;50.892;7.082;2023-11-19T07:26:54;11.80;;;2.30;;
3155;SDS011;1588;50.892;7.082;2023-11-19T07:31:58;20.77;;;3.87;;
3155;SDS011;1588;50.892;7.082;2023-11-19T07:37:02;19.20;;;3.40;;
3155;SDS011;1588;50.892;7.082;2023-11-19T07:42:05;25.33;;;3.83;;
3155;SDS011;1588;50.892;7.082;2023-11-19T07:47:09;20.23;;;4.27;;
3155;SDS011;1588;50.892;7.082;2023-11-19T07:52:14;18.60;;;4.83;;
3155;SDS011;1588;50.892;7.082;2023-11-19T07:57:16;25.27;;;4.23;;
3155;SDS011;1588;50.892;7.082;2023-11-19T08:02:20;18.00;;;3.90;;
3155;SDS011;1588;50.892;7.082;2023-11-19T08:07:23;24.23;;;3.07;;
3155;SDS011;1588;50.892;7.082;2023-11-19T08:12:26;11.73;;;2.37;;
3155;SDS011;1588;50.892;7.082;2023-11-19T08:17:30;21.03;;;3.67;;
3155;SDS011;1588;50.892;7.082;2023-11-19T08:22:32;31.50;;;4.23;;
3155;SDS011;1588;50.892;7.082;2023-11-19T08:27:35;18.13;;;4.10;;
3155;SDS011;1588;50.892;7.082;2023-11-19T08:32:39;10.57;;;2.53;;
3155;SDS011;1588;50.892;7.082;2023-11-19T08:37:41;20.03;;;3.73;;
3155;SDS011;1588;50.892;7.082;2023-11-19T08:42:45;23.87;;;3.50;;
3155;SDS011;1588;50.892;7.082;2023-11-19T08:47:49;26.13;;;2.90;;
3155;SDS011;1588;50.892;7.082;2023-11-19T08:52:58;12.73;;;2.27;;
3155;SDS011;1588;50.892;7.082;2023-11-19T08:58:01;17.87;;;2.90;;
3155;SDS011;1588;50.892;7.082;2023-11-19T09:03:04;15.80;;;3.03;;
3155;SDS011;1588;50.892;7.082;2023-11-19T09:08:09;13.83;;;2.80;;
3155;SDS011;1588;50.892;7.082;2023-11-19T09:13:13;17.77;;;4.00;;
3155;SDS011;1588;50.892;7.082;2023-11-19T09:18:17;9.57;;;2.53;;
3155;SDS011;1588;50.892;7.082;2023-11-19T09:23:20;12.33;;;2.20;;
3155;SDS011;1588;50.892;7.082;2023-11-19T09:28:26;13.10;;;2.10;;
3155;SDS011;1588;50.892;7.082;2023-11-19T09:33:29;14.40;;;3.00;;
3155;SDS011;1588;50.892;7.082;2023-11-19T09:38:32;12.43;;;2.80;;
3155;SDS011;1588;50.892;7.082;2023-11-19T09:43:35;10.80;;;2.30;;
3155;SDS011;1588;50.892;7.082;2023-11-19T09:48:39;9.80;;;2.40;;
3155;SDS011;1588;50.892;7.082;2023-11-19T09:53:42;15.33;;;3.23;;
3155;SDS011;1588;50.892;7.082;2023-11-19T09:58:45;15.50;;;2.50;;
3155;SDS011;1588;50.892;7.082;2023-11-19T10:03:50;17.83;;;4.03;;
3155;SDS011;1588;50.892;7.082;2023-11-19T10:08:56;16.10;;;2.63;;
3155;SDS011;1588;50.892;7.082;2023-11-19T10:14:00;19.13;;;3.13;;
3155;SDS011;1588;50.892;7.082;2023-11-19T10:19:04;14.70;;;3.73;;
3155;SDS011;1588;50.892;7.082;2023-11-19T10:24:07;26.83;;;4.20;;
3155;SDS011;1588;50.892;7.082;2023-11-19T10:29:12;15.63;;;2.57;;
3155;SDS011;1588;50.892;7.082;2023-11-19T10:34:25;15.27;;;2.97;;
3155;SDS011;1588;50.892;7.082;2023-11-19T10:39:33;24.97;;;3.30;;
3155;SDS011;1588;50.892;7.082;2023-11-19T10:44:55;14.80;;;2.40;;
3155;SDS011;1588;50.892;7.082;2023-11-19T10:49:59;11.83;;;2.60;;
3155;SDS011;1588;50.892;7.082;2023-11-19T10:55:02;10.67;;;2.80;;
3155;SDS011;1588;50.892;7.082;2023-11-19T11:00:09;6.00;;;2.43;;
3155;SDS011;1588;50.892;7.082;2023-11-19T11:05:18;16.03;;;2.60;;
3155;SDS011;1588;50.892;7.082;2023-11-19T11:10:23;21.20;;;3.00;;
3155;SDS011;1588;50.892;7.082;2023-11-19T11:15:27;8.73;;;2.50;;
3155;SDS011;1588;50.892;7.082;2023-11-19T11:20:34;25.27;;;3.20;;
3155;SDS011;1588;50.892;7.082;2023-11-19T11:25:38;19.53;;;2.70;;
3155;SDS011;1588;50.892;7.082;2023-11-19T11:30:55;14.63;;;3.10;;
3155;SDS011;1588;50.892;7.082;2023-11-19T11:36:13;25.80;;;3.73;;
3155;SDS011;1588;50.892;7.082;2023-11-19T11:41:22;14.43;;;2.40;;
3155;SDS011;1588;50.892;7.082;2023-11-19T11:52:00;17.13;;;3.23;;
3155;SDS011;1588;50.892;7.082;2023-11-19T11:57:08;14.13;;;2.10;;
3155;SDS011;1588;50.892;7.082;2023-11-19T12:02:12;8.17;;;2.43;;
3155;SDS011;1588;50.892;7.082;2023-11-19T12:07:19;14.70;;;2.47;;
3155;SDS011;1588;50.892;7.082;2023-11-19T12:18:40;10.27;;;1.97;;
3155;SDS011;1588;50.892;7.082;2023-11-19T12:24:16;10.63;;;2.27;;
3155;SDS011;1588;50.892;7.082;2023-11-19T12:29:44;11.73;;;1.90;;
3155;SDS011;1588;50.892;7.082;2023-11-19T12:35:22;19.93;;;2.37;;
3155;SDS011;1588;50.892;7.082;2023-11-19T12:47:01;12.93;;;2.63;;
3155;SDS011;1588;50.892;7.082;2023-11-19T12:52:39;7.90;;;2.27;;
3155;SDS011;1588;50.892;7.082;2023-11-19T12:58:49;8.43;;;2.60;;
3155;SDS011;1588;50.892;7.082;2023-11-19T13:04:57;15.00;;;2.50;;
3155;SDS011;1588;50.892;7.082;2023-11-19T13:22:39;8.20;;;2.47;;
3155;SDS011;1588;50.892;7.082;2023-11-19T13:28:38;11.50;;;1.93;;
3155;SDS011;1588;50.892;7.082;2023-11-19T13:34:15;12.27;;;2.77;;
3155;SDS011;1588;50.892;7.082;2023-11-19T13:39:41;14.87;;;2.57;;
3155;SDS011;1588;50.892;7.082;2023-11-19T13:45:25;12.60;;;2.37;;
3155;SDS011;1588;50.892;7.082;2023-11-19T13:57:37;20.63;;;3.83;;
3155;SDS011;1588;50.892;7.082;2023-11-19T14:03:04;39.43;;;8.13;;
3155;SDS011;1588;50.892;7.082;2023-11-19T14:08:58;12.03;;;3.10;;
3155;SDS011;1588;50.892;7.082;2023-11-19T14:14:47;12.97;;;3.23;;
3155;SDS011;1588;50.892;7.082;2023-11-19T14:19:52;16.03;;;2.70;;
3155;SDS011;1588;50.892;7.082;2023-11-19T14:24:56;24.20;;;2.33;;
3155;SDS011;1588;50.892;7.082;2023-11-19T14:29:59;12.17;;;2.73;;
3155;SDS011;1588;50.892;7.082;2023-11-19T14:35:01;8.40;;;2.37;;
3155;SDS011;1588;50.892;7.082;2023-11-19T14:40:07;16.33;;;2.33;;
3155;SDS011;1588;50.892;7.082;2023-11-19T14:45:12;11.33;;;3.73;;
3155;SDS011;1588;50.892;7.082;2023-11-19T14:50:15;7.60;;;2.57;;
3155;SDS011;1588;50.892;7.082;2023-11-19T14:55:18;13.10;;;2.43;;
3155;SDS011;1588;50.892;7.082;2023-11-19T15:00:21;19.43;;;4.23;;
3155;SDS011;1588;50.892;7.082;2023-11-19T15:05:23;10.03;;;3.10;;
3155;SDS011;1588;50.892;7.082;2023-11-19T15:10:27;15.37;;;3.20;;
3155;SDS011;1588;50.892;7.082;2023-11-19T15:15:29;21.00;;;4.83;;
3155;SDS011;1588;50.892;7.082;2023-11-19T15:20:32;24.60;;;4.80;;
3155;SDS011;1588;50.892;7.082;2023-11-19T15:25:35;17.40;;;4.13;;
3155;SDS011;1588;50.892;7.082;2023-11-19T15:30:38;5.57;;;2.33;;
3155;SDS011;1588;50.892;7.082;2023-11-19T15:35:40;6.73;;;2.20;;
3155;SDS011;1588;50.892;7.082;2023-11-19T15:40:48;11.20;;;2.67;;
3155;SDS011;1588;50.892;7.082;2023-11-19T15:45:52;12.50;;;2.23;;
3155;SDS011;1588;50.892;7.082;2023-11-19T15:50:54;12.83;;;3.37;;
3155;SDS011;1588;50.892;7.082;2023-11-19T15:55:58;13.80;;;3.10;;
3155;SDS011;1588;50.892;7.082;2023-11-19T16:01:02;9.97;;;2.70;;
3155;SDS011;1588;50.892;7.082;2023-11-19T16:06:05;13.90;;;2.57;;
3155;SDS011;1588;50.892;7.082;2023-11-19T16:11:12;15.83;;;3.33;;
3155;SDS011;1588;50.892;7.082;2023-11-19T16:16:14;7.47;;;2.47;;
3155;SDS011;1588;50.892;7.082;2023-11-19T16:21:17;24.67;;;2.93;;
3155;SDS011;1588;50.892;7.082;2023-11-19T16:26:21;12.53;;;2.80;;
3155;SDS011;1588;50.892;7.082;2023-11-19T16:31:23;13.90;;;2.90;;
3155;SDS011;1588;50.892;7.082;2023-11-19T16:36:26;18.10;;;3.30;;
3155;SDS011;1588;50.892;7.082;2023-11-19T16:41:29;9.90;;;2.50;;
3155;SDS011;1588;50.892;7.082;2023-11-19T16:46:32;13.07;;;3.23;;
3155;SDS011;1588;50.892;7.082;2023-11-19T16:51:35;23.33;;;3.20;;
3155;SDS011;1588;50.892;7.082;2023-11-19T16:56:38;14.00;;;3.60;;
3155;SDS011;1588;50.892;7.082;2023-11-19T17:01:43;9.67;;;2.30;;
3155;SDS011;1588;50.892;7.082;2023-11-19T17:06:47;11.70;;;2.70;;
3155;SDS011;1588;50.892;7.082;2023-11-19T17:11:50;13.70;;;2.70;;
3155;SDS011;1588;50.892;7.082;2023-11-19T17:16:53;15.33;;;2.53;;
3155;SDS011;1588;50.892;7.082;2023-11-19T17:21:55;11.50;;;2.37;;
3155;SDS011;1588;50.892;7.082;2023-11-19T17:26:59;23.30;;;3.10;;
3155;SDS011;1588;50.892;7.082;2023-11-19T17:32:01;14.07;;;2.60;;
3155;SDS011;1588;50.892;7.082;2023-11-19T17:37:04;11.07;;;2.57;;
3155;SDS011;1588;50.892;7.082;2023-11-19T17:42:09;18.30;;;3.03;;
3155;SDS011;1588;50.892;7.082;2023-11-19T17:47:11;13.23;;;2.80;;
3155;SDS011;1588;50.892;7.082;2023-11-19T17:52:14;18.03;;;3.87;;
3155;SDS011;1588;50.892;7.082;2023-11-19T17:57:18;19.80;;;3.33;;
3155;SDS011;1588;50.892;7.082;2023-11-19T18:02:25;12.33;;;2.40;;
3155;SDS011;1588;50.892;7.082;2023-11-19T18:07:28;12.40;;;2.47;;
3155;SDS011;1588;50.892;7.082;2023-11-19T18:12:32;21.07;;;3.63;;
3155;SDS011;1588;50.892;7.082;2023-11-19T18:17:34;15.20;;;2.47;;
3155;SDS011;1588;50.892;7.082;2023-11-19T18:22:37;11.47;;;2.57;;
3155;SDS011;1588;50.892;7.082;2023-11-19T18:27:41;17.87;;;3.50;;
3155;SDS011;1588;50.892;7.082;2023-11-19T18:32:43;23.20;;;3.10;;
3155;SDS011;1588;50.892;7.082;2023-11-19T18:37:46;13.83;;;2.80;;
3155;SDS011;1588;50.892;7.082;2023-11-19T18:48:47;13.97;;;2.63;;
3155;SDS011;1588;50.892;7.082;2023-11-19T18:54:00;9.73;;;1.80;;
3155;SDS011;1588;50.892;7.082;2023-11-19T18:59:41;13.20;;;3.07;;
3155;SDS011;1588;50.892;7.082;2023-11-19T19:05:08;9.40;;;1.77;;
3155;SDS011;1588;50.892;7.082;2023-11-19T19:10:17;6.70;;;2.00;;
3155;SDS011;1588;50.892;7.082;2023-11-19T19:15:20;20.60;;;2.30;;
3155;SDS011;1588;50.892;7.082;2023-11-19T19:20:27;5.10;;;2.23;;
3155;SDS011;1588;50.892;7.082;2023-11-19T19:25:30;7.90;;;1.70;;
3155;SDS011;1588;50.892;7.082;2023-11-19T19:30:35;28.63;;;2.80;;
3155;SDS011;1588;50.892;7.082;2023-11-19T19:35:39;9.30;;;4.93;;
3155;SDS011;1588;50.892;7.082;2023-11-19T19:40:42;7.17;;;2.50;;
3155;SDS011;1588;50.892;7.082;2023-11-19T19:45:45;11.37;;;3.30;;
3155;SDS011;1588;50.892;7.082;2023-11-19T19:50:49;8.33;;;2.13;;
3155;SDS011;1588;50.892;7.082;2023-11-19T19:55:52;11.17;;;2.10;;
3155;SDS011;1588;50.892;7.082;2023-11-19T20:00:55;11.63;;;1.83;;
3155;SDS011;1588;50.892;7.082;2023-11-19T20:05:58;6.50;;;1.90;;
3155;SDS011;1588;50.892;7.082;2023-11-19T20:11:01;9.30;;;1.60;;
3155;SDS011;1588;50.892;7.082;2023-11-19T20:16:04;12.10;;;2.00;;
3155;SDS011;1588;50.892;7.082;2023-11-19T20:21:08;6.20;;;1.50;;
3155;SDS011;1588;50.892;7.082;2023-11-19T20:26:11;3.90;;;1.93;;
3155;SDS011;1588;50.892;7.082;2023-11-19T20:31:18;5.43;;;1.73;;
3155;SDS011;1588;50.892;7.082;2023-11-19T20:36:23;8.00;;;2.03;;
3155;SDS011;1588;50.892;7.082;2023-11-19T20:41:25;3.00;;;1.60;;
3155;SDS011;1588;50.892;7.082;2023-11-19T20:46:28;4.93;;;1.43;;
3155;SDS011;1588;50.892;7.082;2023-11-19T20:51:32;12.03;;;2.20;;
3155;SDS011;1588;50.892;7.082;2023-11-19T20:56:34;15.40;;;2.70;;
3155;SDS011;1588;50.892;7.082;2023-11-19T21:01:37;6.43;;;1.83;;
3155;SDS011;1588;50.892;7.082;2023-11-19T21:06:41;11.80;;;1.63;;
3155;SDS011;1588;50.892;7.082;2023-11-19T21:11:44;7.90;;;1.73;;
3155;SDS011;1588;50.892;7.082;2023-11-19T21:16:47;16.80;;;2.40;;
3155;SDS011;1588;50.892;7.082;2023-11-19T21:21:51;8.23;;;1.30;;
3155;SDS011;1588;50.892;7.082;2023-11-19T21:26:53;14.53;;;2.80;;
3155;SDS011;1588;50.892;7.082;2023-11-19T21:31:56;8.00;;;2.30;;
3155;SDS011;1588;50.892;7.082;2023-11-19T21:37:00;5.77;;;2.23;;
3155;SDS011;1588;50.892;7.082;2023-11-19T21:42:06;3.77;;;1.67;;
3155;SDS011;1588;50.892;7.082;2023-11-19T21:47:08;8.03;;;1.90;;
3155;SDS011;1588;50.892;7.082;2023-11-19T21:52:12;4.00;;;1.27;;
3155;SDS011;1588;50.892;7.082;2023-11-19T21:57:16;4.80;;;1.50;;
3155;SDS011;1588;50.892;7.082;2023-11-19T22:02:18;4.47;;;1.43;;
3155;SDS011;1588;50.892;7.082;2023-11-19T22:07:24;5.43;;;1.40;;
3155;SDS011;1588;50.892;7.082;2023-11-19T22:12:26;5.20;;;1.70;;
3155;SDS011;1588;50.892;7.082;2023-11-19T22:17:29;9.90;;;1.80;;
3155;SDS011;1588;50.892;7.082;2023-11-19T22:22:33;4.93;;;1.07;;
3155;SDS011;1588;50.892;7.082;2023-11-19T22:27:39;4.87;;;1.10;;
3155;SDS011;1588;50.892;7.082;2023-11-19T22:32:41;2.37;;;1.00;;
3155;SDS011;1588;50.892;7.082;2023-11-19T22:37:45;8.00;;;1.40;;
3155;SDS011;1588;50.892;7.082;2023-11-19T22:42:48;4.00;;;1.53;;
3155;SDS011;1588;50.892;7.082;2023-11-19T22:47:51;2.83;;;0.97;;
3155;SDS011;1588;50.892;7.082;2023-11-19T22:52:58;2.70;;;1.20;;
3155;SDS011;1588;50.892;7.082;2023-11-19T22:58:01;7.20;;;1.17;;
3155;SDS011;1588;50.892;7.082;2023-11-19T23:03:04;2.93;;;1.10;;
3155;SDS011;1588;50.892;7.082;2023-11-19T23:08:09;2.90;;;1.20;;
3155;SDS011;1588;50.892;7.082;2023-11-19T23:13:12;1.73;;;0.93;;
3155;SDS011;1588;50.892;7.082;2023-11-19T23:18:14;3.33;;;0.80;;
3155;SDS011;1588;50.892;7.082;2023-11-19T23:23:18;1.47;;;1.00;;
3155;SDS011;1588;50.892;7.082;2023-11-19T23:28:22;4.03;;;2.03;;
3155;SDS011;1588;50.892;7.082;2023-11-19T23:33:26;2.47;;;1.20;;
3155;SDS011;1588;50.892;7.082;2023-11-19T23:38:30;3.80;;;1.50;;
3155;SDS011;1588;50.892;7.082;2023-11-19T23:43:32;5.63;;;1.33;;
3155;SDS011;1588;50.892;7.082;2023-11-19T23:48:35;3.90;;;1.17;;
3155;SDS011;1588;50.892;7.082;2023-11-19T23:53:40;8.97;;;1.30;;
3155;SDS011;1588;50.892;7.082;2023-11-19T23:58:44;3.27;;;1.00;;
